OMAA/AUH METAR and TAF weather

Enter ICAO airport designator
Station Type Date Time Source
OMAA METAR 2018/12/12 12:00 UTC NOAA

OMAA 121200Z 35008KT 310V020 CAVOK 25/16 Q1017 NOSIG


Station Type Date Time Source
OMAA Decoded METAR 2018/12/12 12:00 UTC NOAA

Abu Dhabi International Airport, United Arab Emirates (OMAA) 24-26N 054-39E 27M
Dec 12, 2018 - 07:00 AM EST / 2018.12.12 1200 UTC
Wind: from the N (350 degrees) at 9 MPH (8 KT) (direction variable):0
Visibility: greater than 7 mile(s):0
Temperature: 77 F (25 C)
Dew Point: 60 F (16 C)
Relative Humidity: 57%
Pressure (altimeter): 30.03 in. Hg (1017 hPa)
ob: OMAA 121200Z 35008KT 310V020 CAVOK 25/16 Q1017 NOSIG
cycle: 12

Station Type Date Time Source
OMAA TAF 2018/12/12 12:06 UTC NOAA

TAF TAF OMAA 121100Z 1212/1318 30010KT CAVOK
BECMG 1219/1221 VRB02KT PROB30
TEMPO 1301/1305 2000 BR BKN005
BECMG 1307/1309 33010KT


Example: see airport list